Time;durP1;ratioP1;P1;durP2;ratioP2;P2;SDS_P1;SDS_P2;PMS_P1;PMS_P2;Temp;Humidity;BMP_temperature;BMP_pressure;BME280_temperature;BME280_humidity;BME280_pressure;Samples;Min_cycle;Max_cycle;Signal;HPM_P1;HPM_P2
2023/08/04 00:00:06;;;;;;;;;7.50;5.25;;;;;;;;5078337;28;45326;-41
2023/08/04 00:02:32;;;;;;;;;5.75;5.00;;;;;;;;5078419;28;45260;-41
2023/08/04 00:04:57;;;;;;;;;6.50;6.25;;;;;;;;5078298;27;45509;-41
2023/08/04 00:07:22;;;;;;;;;8.75;6.50;;;;;;;;5077798;28;46300;-41
2023/08/04 00:09:47;;;;;;;;;6.75;6.00;;;;;;;;5077798;27;45252;-41
2023/08/04 00:12:12;;;;;;;;;6.00;6.00;;;;;;;;5078253;28;45319;-42
2023/08/04 00:14:37;;;;;;;;;7.00;6.25;;;;;;;;5078375;28;45398;-41
2023/08/04 00:17:03;;;;;;;;;6.50;6.50;;;;;;;;5075942;28;45465;-41
2023/08/04 00:19:28;;;;;;;;;7.25;6.00;;;;;;;;5077766;27;45327;-41
2023/08/04 00:21:53;;;;;;;;;11.50;7.75;;;;;;;;5078210;28;45368;-41
2023/08/04 00:24:18;;;;;;;;;9.00;7.00;;;;;;;;5077559;27;45426;-41
2023/08/04 00:26:44;;;;;;;;;5.50;3.50;;;;;;;;5077803;28;47488;-41
2023/08/04 00:29:09;;;;;;;;;9.75;5.25;;;;;;;;5059433;28;46076;-41
2023/08/04 00:31:34;;;;;;;;;8.00;6.67;;;;;;;;5077879;28;45389;-42
2023/08/04 00:33:59;;;;;;;;;6.00;5.50;;;;;;;;5077881;27;45412;-40
2023/08/04 00:36:24;;;;;;;;;7.00;6.50;;;;;;;;5077604;28;46304;-41
2023/08/04 00:38:49;;;;;;;;;6.00;5.00;;;;;;;;5077825;28;45319;-40
2023/08/04 00:41:15;;;;;;;;;8.00;6.75;;;;;;;;5077472;27;45448;-41
2023/08/04 00:43:40;;;;;;;;;6.00;5.50;;;;;;;;5077971;28;45283;-41
2023/08/04 00:46:05;;;;;;;;;8.75;7.00;;;;;;;;5077641;27;45550;-42
2023/08/04 00:48:31;;;;;;;;;4.50;4.50;;;;;;;;5077489;27;45358;-41
2023/08/04 00:50:56;;;;;;;;;6.00;6.00;;;;;;;;5077647;28;45388;-40
2023/08/04 00:53:21;;;;;;;;;9.50;6.50;;;;;;;;5077565;28;45299;-41
2023/08/04 00:55:47;;;;;;;;;8.50;7.25;;;;;;;;5077423;27;45224;-40
2023/08/04 00:58:12;;;;;;;;;9.50;5.50;;;;;;;;5077421;28;45326;-41
2023/08/04 01:00:38;;;;;;;;;9.25;5.75;;;;;;;;5077446;27;45303;-41
2023/08/04 01:03:03;;;;;;;;;9.00;6.75;;;;;;;;5077514;28;45451;-42
2023/08/04 01:05:34;;;;;;;;;8.50;7.00;;;;;;;;5058788;28;47058;-41
2023/08/04 01:08:10;;;;;;;;;10.75;6.00;;;;;;;;5077114;28;45324;-42
2023/08/04 01:10:50;;;;;;;;;9.00;6.00;;;;;;;;5077356;27;45387;-41
2023/08/04 01:13:20;;;;;;;;;9.50;7.00;;;;;;;;5077800;27;45375;-42
2023/08/04 01:15:45;;;;;;;;;7.25;6.00;;;;;;;;5077125;27;45344;-41
2023/08/04 01:18:11;;;;;;;;;11.00;7.00;;;;;;;;5077037;27;45338;-41
2023/08/04 01:20:36;;;;;;;;;7.75;7.50;;;;;;;;5078773;28;45436;-42
2023/08/04 01:23:01;;;;;;;;;4.75;4.75;;;;;;;;5080325;28;45580;-41
2023/08/04 01:25:32;;;;;;;;;5.00;5.00;;;;;;;;5079925;28;46270;-41
2023/08/04 01:27:59;;;;;;;;;8.75;6.00;;;;;;;;5080387;27;45391;-41
2023/08/04 01:30:25;;;;;;;;;10.75;6.25;;;;;;;;5080739;28;45377;-42
2023/08/04 01:32:50;;;;;;;;;5.00;5.00;;;;;;;;5080919;27;45312;-42
2023/08/04 01:35:16;;;;;;;;;7.25;7.25;;;;;;;;5099430;27;46132;-42
2023/08/04 01:37:43;;;;;;;;;7.25;4.00;;;;;;;;5101005;27;45303;-41
2023/08/04 01:40:09;;;;;;;;;4.75;4.75;;;;;;;;5101127;27;45394;-42
2023/08/04 01:42:34;;;;;;;;;7.00;6.00;;;;;;;;5101241;27;45406;-42
2023/08/04 01:44:59;;;;;;;;;6.50;5.00;;;;;;;;5100669;27;46295;-41
2023/08/04 01:47:24;;;;;;;;;5.00;5.00;;;;;;;;5100673;27;45364;-41
2023/08/04 01:49:50;;;;;;;;;6.25;6.25;;;;;;;;5100655;27;45403;-41
2023/08/04 01:52:15;;;;;;;;;9.33;7.00;;;;;;;;5101118;27;45207;-41
2023/08/04 01:54:40;;;;;;;;;8.00;6.67;;;;;;;;5100639;27;47162;-42
2023/08/04 01:57:05;;;;;;;;;6.00;6.00;;;;;;;;5100812;27;45408;-40
2023/08/04 01:59:31;;;;;;;;;7.67;7.00;;;;;;;;5100832;27;45210;-41
2023/08/04 02:01:56;;;;;;;;;6.67;6.67;;;;;;;;5100815;27;45450;-41
2023/08/04 02:04:21;;;;;;;;;6.50;5.00;;;;;;;;5100419;27;45299;-43
2023/08/04 02:06:46;;;;;;;;;5.67;5.33;;;;;;;;5100638;27;45397;-41
2023/08/04 02:09:12;;;;;;;;;7.67;5.67;;;;;;;;5100789;27;45445;-42
2023/08/04 02:11:37;;;;;;;;;4.00;3.00;;;;;;;;5100697;27;45386;-42
2023/08/04 02:14:02;;;;;;;;;5.33;5.00;;;;;;;;5100446;27;45333;-40
2023/08/04 02:16:27;;;;;;;;;6.00;5.33;;;;;;;;5100495;27;45380;-40
2023/08/04 02:18:59;;;;;;;;;9.67;5.00;;;;;;;;5100360;27;45339;-42
2023/08/04 02:21:24;;;;;;;;;7.67;5.00;;;;;;;;5099876;27;45599;-41
2023/08/04 02:23:49;;;;;;;;;7.33;5.33;;;;;;;;5100141;27;47117;-41
2023/08/04 02:26:14;;;;;;;;;7.33;5.00;;;;;;;;5100458;27;45347;-42
2023/08/04 02:28:40;;;;;;;;;8.50;6.25;;;;;;;;5100362;27;45162;-42
2023/08/04 02:31:05;;;;;;;;;5.50;4.75;;;;;;;;5100318;27;45444;-42
2023/08/04 02:33:30;;;;;;;;;10.67;7.33;;;;;;;;5099879;27;46209;-41
2023/08/04 02:36:02;;;;;;;;;5.00;5.00;;;;;;;;5100249;27;45349;-41
2023/08/04 02:38:27;;;;;;;;;8.33;8.00;;;;;;;;5100134;27;45319;-42
2023/08/04 02:40:52;;;;;;;;;7.33;5.00;;;;;;;;5100152;27;45420;-41
2023/08/04 02:43:17;;;;;;;;;12.00;6.67;;;;;;;;5099980;27;46225;-40
2023/08/04 02:46:01;;;;;;;;;7.33;6.00;;;;;;;;5099829;27;45216;-41
2023/08/04 02:48:26;;;;;;;;;8.33;6.00;;;;;;;;5099943;27;45287;-42
2023/08/04 02:51:04;;;;;;;;;5.33;4.67;;;;;;;;5099947;27;45374;-41
2023/08/04 02:53:30;;;;;;;;;11.33;7.33;;;;;;;;5099716;27;46166;-40
2023/08/04 02:55:56;;;;;;;;;10.67;6.67;;;;;;;;5100053;27;45389;-41
2023/08/04 02:58:24;;;;;;;;;9.00;9.00;;;;;;;;5099833;27;45907;-42
2023/08/04 03:00:50;;;;;;;;;6.33;6.33;;;;;;;;5100321;27;45406;-43
2023/08/04 03:03:15;;;;;;;;;10.00;6.67;;;;;;;;5099608;27;46414;-42
2023/08/04 03:05:40;;;;;;;;;7.00;6.00;;;;;;;;5099314;27;45335;-42
2023/08/04 03:08:06;;;;;;;;;5.67;5.67;;;;;;;;5099724;27;45241;-42
2023/08/04 03:10:31;;;;;;;;;6.67;6.67;;;;;;;;5099904;27;45511;-41
2023/08/04 03:12:56;;;;;;;;;6.00;6.00;;;;;;;;5099361;27;47488;-41
2023/08/04 03:15:21;;;;;;;;;8.33;8.00;;;;;;;;5099459;27;45353;-43
2023/08/04 03:17:46;;;;;;;;;6.33;6.33;;;;;;;;5099483;27;45314;-41
2023/08/04 03:20:11;;;;;;;;;7.00;5.67;;;;;;;;5099563;27;45312;-41
2023/08/04 03:22:37;;;;;;;;;8.67;6.67;;;;;;;;5098523;27;46259;-41
2023/08/04 03:25:02;;;;;;;;;7.00;7.00;;;;;;;;5099395;27;45222;-40
2023/08/04 03:27:27;;;;;;;;;9.33;7.00;;;;;;;;5099462;27;45623;-41
2023/08/04 03:29:53;;;;;;;;;7.67;6.67;;;;;;;;5099362;27;45311;-40
2023/08/04 03:32:18;;;;;;;;;11.00;9.00;;;;;;;;5098958;27;45831;-41
2023/08/04 03:34:43;;;;;;;;;11.67;7.67;;;;;;;;5098919;27;45434;-41
2023/08/04 03:37:08;;;;;;;;;9.00;9.00;;;;;;;;5099039;27;45279;-41
2023/08/04 03:39:33;;;;;;;;;8.33;8.33;;;;;;;;5099265;27;45218;-41
2023/08/04 03:41:59;;;;;;;;;6.67;6.67;;;;;;;;5098990;27;45299;-41
2023/08/04 03:44:24;;;;;;;;;9.33;8.33;;;;;;;;5098225;27;45413;-42
2023/08/04 03:46:49;;;;;;;;;13.00;7.67;;;;;;;;5099086;27;45318;-41
2023/08/04 03:49:14;;;;;;;;;10.33;8.00;;;;;;;;5099020;27;45226;-41
2023/08/04 03:51:39;;;;;;;;;8.00;8.00;;;;;;;;5098657;27;45346;-40
2023/08/04 03:54:05;;;;;;;;;13.00;11.00;;;;;;;;5098783;27;45410;-42
2023/08/04 03:56:30;;;;;;;;;10.00;10.00;;;;;;;;5098690;27;45434;-41
2023/08/04 03:58:56;;;;;;;;;8.00;8.00;;;;;;;;5098857;27;45315;-41
2023/08/04 04:01:21;;;;;;;;;12.00;9.33;;;;;;;;5098490;27;46167;-41
2023/08/04 04:03:46;;;;;;;;;6.67;6.67;;;;;;;;5098743;27;45232;-42
2023/08/04 04:06:12;;;;;;;;;11.00;10.67;;;;;;;;5080269;27;45327;-41
2023/08/04 04:08:37;;;;;;;;;10.67;8.00;;;;;;;;5098677;27;45213;-40
2023/08/04 04:11:02;;;;;;;;;9.67;8.00;;;;;;;;5098291;27;45314;-41
2023/08/04 04:13:28;;;;;;;;;8.67;8.67;;;;;;;;5098422;27;45463;-40
2023/08/04 04:15:53;;;;;;;;;11.67;11.00;;;;;;;;5098438;27;45453;-41
2023/08/04 04:18:18;;;;;;;;;8.67;7.33;;;;;;;;5098764;27;45327;-42
2023/08/04 04:20:43;;;;;;;;;11.00;11.00;;;;;;;;5098076;27;45916;-40
2023/08/04 04:23:08;;;;;;;;;10.67;10.67;;;;;;;;5098172;27;45466;-42
2023/08/04 04:25:34;;;;;;;;;9.00;8.67;;;;;;;;5098565;27;45473;-42
2023/08/04 04:27:59;;;;;;;;;7.33;7.33;;;;;;;;5098299;27;45784;-41
2023/08/04 04:30:24;;;;;;;;;12.33;8.33;;;;;;;;5098144;27;45407;-41
2023/08/04 04:32:49;;;;;;;;;9.00;8.33;;;;;;;;5098077;27;45422;-42
2023/08/04 04:35:14;;;;;;;;;11.33;11.33;;;;;;;;5097965;27;45275;-41
2023/08/04 04:37:40;;;;;;;;;6.33;6.00;;;;;;;;5098440;27;45401;-42
2023/08/04 04:40:05;;;;;;;;;14.33;11.00;;;;;;;;5097810;27;46219;-41
2023/08/04 04:42:34;;;;;;;;;16.00;12.67;;;;;;;;5097899;27;45313;-41
2023/08/04 04:45:00;;;;;;;;;11.33;10.33;;;;;;;;5097957;27;45205;-41
2023/08/04 04:47:25;;;;;;;;;15.33;12.00;;;;;;;;5098021;27;45337;-41
2023/08/04 04:49:50;;;;;;;;;13.00;12.33;;;;;;;;5097072;27;46180;-41
2023/08/04 04:52:28;;;;;;;;;11.67;9.67;;;;;;;;5097917;27;45307;-41
2023/08/04 04:54:53;;;;;;;;;15.33;12.33;;;;;;;;5096439;27;45367;-41
2023/08/04 04:57:18;;;;;;;;;12.00;11.00;;;;;;;;5098184;27;45302;-41
2023/08/04 04:59:43;;;;;;;;;11.33;8.00;;;;;;;;5096846;27;45397;-41
2023/08/04 05:02:08;;;;;;;;;12.67;9.00;;;;;;;;5097649;27;45342;-41
2023/08/04 05:04:33;;;;;;;;;11.33;9.33;;;;;;;;5097912;27;45298;-41
2023/08/04 05:06:59;;;;;;;;;10.00;9.67;;;;;;;;5097838;27;45473;-42
2023/08/04 05:09:24;;;;;;;;;10.00;10.00;;;;;;;;5097442;27;47225;-42
2023/08/04 05:11:49;;;;;;;;;10.67;7.67;;;;;;;;5097420;27;45420;-41
2023/08/04 05:14:14;;;;;;;;;11.00;9.33;;;;;;;;5097516;27;45449;-42
2023/08/04 05:16:40;;;;;;;;;12.00;10.67;;;;;;;;5097768;27;45469;-41
2023/08/04 05:19:06;;;;;;;;;12.33;11.00;;;;;;;;5096463;27;45584;-40
2023/08/04 05:21:31;;;;;;;;;7.67;7.67;;;;;;;;5097283;27;45381;-41
2023/08/04 05:23:56;;;;;;;;;14.67;10.00;;;;;;;;5097360;27;45275;-42
2023/08/04 05:26:21;;;;;;;;;15.67;12.00;;;;;;;;5079293;27;45303;-41
2023/08/04 05:28:46;;;;;;;;;11.00;11.00;;;;;;;;5097372;27;45401;-41
2023/08/04 05:31:12;;;;;;;;;10.33;10.00;;;;;;;;5097081;27;45287;-41
2023/08/04 05:33:37;;;;;;;;;11.00;10.33;;;;;;;;5097408;27;45511;-41
2023/08/04 05:36:02;;;;;;;;;15.00;13.67;;;;;;;;5096605;27;45386;-41
2023/08/04 05:38:28;;;;;;;;;12.33;10.00;;;;;;;;5097110;27;46385;-41
2023/08/04 05:40:53;;;;;;;;;15.00;12.00;;;;;;;;5097120;27;45252;-41
2023/08/04 05:43:18;;;;;;;;;11.67;10.67;;;;;;;;5097283;27;45308;-41
2023/08/04 05:45:45;;;;;;;;;14.00;12.00;;;;;;;;5096626;27;45505;-40
2023/08/04 05:48:10;;;;;;;;;16.67;13.67;;;;;;;;5096908;27;47074;-41
2023/08/04 05:50:36;;;;;;;;;14.33;13.67;;;;;;;;5096862;27;45236;-40
2023/08/04 05:53:01;;;;;;;;;9.00;7.67;;;;;;;;5097216;27;45330;-41
2023/08/04 05:55:26;;;;;;;;;20.67;14.67;;;;;;;;5097367;27;45347;-41
2023/08/04 05:57:51;;;;;;;;;14.00;11.00;;;;;;;;5096183;27;45399;-41
2023/08/04 06:00:17;;;;;;;;;13.33;12.00;;;;;;;;5096997;27;45572;-41
2023/08/04 06:02:44;;;;;;;;;14.00;12.00;;;;;;;;5097348;27;45375;-41
2023/08/04 06:05:10;;;;;;;;;14.33;10.00;;;;;;;;5096912;27;45326;-42
2023/08/04 06:07:35;;;;;;;;;13.67;11.00;;;;;;;;5099735;27;46013;-41
2023/08/04 06:10:00;;;;;;;;;16.00;12.67;;;;;;;;5100319;27;45303;-42
2023/08/04 06:12:26;;;;;;;;;12.67;11.00;;;;;;;;5100507;27;45302;-42
2023/08/04 06:14:51;;;;;;;;;9.67;9.67;;;;;;;;5100751;27;45441;-42
2023/08/04 06:17:16;;;;;;;;;14.00;12.67;;;;;;;;5100338;27;46046;-42
2023/08/04 06:19:42;;;;;;;;;14.67;10.00;;;;;;;;5099337;27;45415;-42
2023/08/04 06:22:08;;;;;;;;;11.67;10.00;;;;;;;;5100055;27;45460;-41
2023/08/04 06:24:33;;;;;;;;;14.67;11.00;;;;;;;;5100417;27;45323;-42
2023/08/04 06:26:58;;;;;;;;;14.00;10.33;;;;;;;;5099961;27;46439;-41
2023/08/04 06:29:23;;;;;;;;;10.00;7.00;;;;;;;;5100216;27;45247;-41
2023/08/04 06:31:48;;;;;;;;;14.00;13.00;;;;;;;;5100323;27;45291;-41
2023/08/04 06:34:14;;;;;;;;;11.67;10.67;;;;;;;;5100423;27;45188;-43
2023/08/04 06:36:39;;;;;;;;;16.67;11.00;;;;;;;;5099928;27;46322;-42
2023/08/04 06:39:04;;;;;;;;;17.33;14.00;;;;;;;;5100358;27;45392;-42
2023/08/04 06:41:29;;;;;;;;;18.00;13.00;;;;;;;;5100021;27;45439;-42
2023/08/04 06:43:55;;;;;;;;;14.33;12.00;;;;;;;;5100101;27;45331;-42
2023/08/04 06:46:20;;;;;;;;;15.00;12.00;;;;;;;;5099766;27;45325;-42
2023/08/04 06:48:45;;;;;;;;;15.00;13.00;;;;;;;;5099828;27;45165;-42
2023/08/04 06:51:10;;;;;;;;;19.00;14.67;;;;;;;;5099845;27;45287;-41
2023/08/04 06:53:36;;;;;;;;;13.67;13.67;;;;;;;;5081632;27;45354;-41
2023/08/04 06:56:01;;;;;;;;;15.67;11.67;;;;;;;;5099302;27;46316;-42
2023/08/04 06:58:26;;;;;;;;;14.67;13.67;;;;;;;;5099781;27;45154;-42
2023/08/04 07:00:51;;;;;;;;;17.33;16.67;;;;;;;;5099361;27;45199;-42
2023/08/04 07:03:16;;;;;;;;;18.33;14.00;;;;;;;;5099876;27;45367;-42
2023/08/04 07:05:42;;;;;;;;;16.25;14.50;;;;;;;;5098853;27;46614;-42
2023/08/04 07:08:07;;;;;;;;;17.00;15.00;;;;;;;;5099481;27;45311;-42
2023/08/04 07:10:35;;;;;;;;;17.33;17.00;;;;;;;;5099593;27;45400;-40
2023/08/04 07:13:00;;;;;;;;;15.67;15.33;;;;;;;;5099693;27;45457;-43
2023/08/04 07:15:26;;;;;;;;;19.00;15.75;;;;;;;;5099087;27;46333;-40
2023/08/04 07:17:51;;;;;;;;;18.00;16.00;;;;;;;;5097901;27;45532;-40
2023/08/04 07:20:16;;;;;;;;;16.75;14.50;;;;;;;;5099430;27;45364;-41
2023/08/04 07:22:41;;;;;;;;;20.33;15.33;;;;;;;;5099428;27;45279;-45
2023/08/04 07:25:07;;;;;;;;;16.67;13.33;;;;;;;;5099049;27;45858;-43
2023/08/04 07:27:32;;;;;;;;;14.75;12.75;;;;;;;;5099075;27;45317;-41
2023/08/04 07:29:57;;;;;;;;;17.67;14.67;;;;;;;;5099096;27;45395;-41
2023/08/04 07:32:22;;;;;;;;;13.75;13.75;;;;;;;;5099353;27;45513;-42
2023/08/04 07:34:47;;;;;;;;;19.00;16.00;;;;;;;;5098028;27;46147;-42
2023/08/04 07:37:13;;;;;;;;;13.25;12.50;;;;;;;;5098781;27;45385;-42
2023/08/04 07:39:38;;;;;;;;;20.25;13.00;;;;;;;;5099170;27;45317;-41
2023/08/04 07:42:03;;;;;;;;;16.25;14.00;;;;;;;;5099037;27;45394;-42
2023/08/04 07:44:30;;;;;;;;;19.00;16.25;;;;;;;;5098656;27;47046;-42
2023/08/04 07:46:55;;;;;;;;;14.00;14.00;;;;;;;;5098847;27;45315;-42
2023/08/04 07:49:20;;;;;;;;;13.25;13.25;;;;;;;;5098891;27;45415;-41
2023/08/04 07:51:45;;;;;;;;;12.00;12.00;;;;;;;;5098913;27;45231;-42
2023/08/04 07:54:10;;;;;;;;;11.75;11.75;;;;;;;;5097860;27;45234;-42
2023/08/04 07:56:36;;;;;;;;;12.25;10.75;;;;;;;;5098718;27;45215;-42
2023/08/04 07:59:01;;;;;;;;;11.50;9.50;;;;;;;;5098891;27;45513;-43
2023/08/04 08:01:26;;;;;;;;;13.00;10.50;;;;;;;;5098853;27;45318;-42
2023/08/04 08:03:51;;;;;;;;;9.00;9.00;;;;;;;;5098396;27;45411;-42
2023/08/04 08:06:17;;;;;;;;;14.50;10.75;;;;;;;;5098345;27;45214;-42
2023/08/04 08:08:44;;;;;;;;;13.25;8.50;;;;;;;;5098717;27;45220;-42
2023/08/04 08:11:09;;;;;;;;;12.00;11.00;;;;;;;;5098540;27;45369;-41
2023/08/04 08:13:35;;;;;;;;;10.00;8.00;;;;;;;;5097240;27;45409;-41
2023/08/04 08:16:09;;;;;;;;;10.50;9.75;;;;;;;;5098147;27;45317;-42
2023/08/04 08:18:35;;;;;;;;;9.00;9.00;;;;;;;;5098564;27;45429;-42
2023/08/04 08:21:03;;;;;;;;;8.75;8.00;;;;;;;;5098516;27;45268;-42
2023/08/04 08:23:28;;;;;;;;;11.00;10.25;;;;;;;;5098191;27;46733;-42
2023/08/04 08:25:53;;;;;;;;;13.25;10.25;;;;;;;;5098249;27;45170;-41
2023/08/04 08:28:18;;;;;;;;;9.50;8.75;;;;;;;;5098502;27;45322;-40
2023/08/04 08:30:43;;;;;;;;;15.25;9.25;;;;;;;;5098182;27;45445;-42
2023/08/04 08:33:08;;;;;;;;;10.25;10.25;;;;;;;;5097957;27;45962;-41
2023/08/04 08:35:34;;;;;;;;;9.25;9.00;;;;;;;;5098195;27;45512;-42
2023/08/04 08:37:59;;;;;;;;;8.75;8.75;;;;;;;;5098124;27;45290;-41
2023/08/04 08:40:25;;;;;;;;;15.25;11.50;;;;;;;;5098319;27;45211;-41
2023/08/04 08:42:51;;;;;;;;;16.25;11.50;;;;;;;;5097351;27;45242;-40
2023/08/04 08:45:16;;;;;;;;;9.50;7.00;;;;;;;;5097979;27;45357;-43
2023/08/04 08:47:43;;;;;;;;;11.00;8.75;;;;;;;;5097989;27;45197;-42
2023/08/04 08:50:10;;;;;;;;;8.00;7.00;;;;;;;;5098102;27;45308;-42
2023/08/04 08:52:37;;;;;;;;;8.50;8.25;;;;;;;;5097796;27;45425;-42
2023/08/04 08:55:03;;;;;;;;;9.75;9.75;;;;;;;;5079214;27;45256;-42
2023/08/04 08:57:28;;;;;;;;;9.00;8.00;;;;;;;;5097967;27;45363;-42
2023/08/04 08:59:56;;;;;;;;;8.25;8.00;;;;;;;;5097807;27;45439;-41
2023/08/04 09:02:21;;;;;;;;;8.00;8.00;;;;;;;;5097588;27;45704;-41
2023/08/04 09:04:47;;;;;;;;;11.75;9.75;;;;;;;;5097730;27;45170;-41
2023/08/04 09:07:12;;;;;;;;;9.75;7.25;;;;;;;;5097581;27;45267;-42
2023/08/04 09:09:37;;;;;;;;;8.50;8.50;;;;;;;;5097534;27;45248;-42
2023/08/04 09:12:03;;;;;;;;;11.25;8.00;;;;;;;;5097635;27;46299;-42
2023/08/04 09:14:28;;;;;;;;;5.40;5.40;;;;;;;;5097571;27;45531;-42
2023/08/04 09:16:53;;;;;;;;;6.50;6.50;;;;;;;;5097582;27;45452;-41
2023/08/04 09:19:19;;;;;;;;;8.00;7.50;;;;;;;;5097871;27;45287;-42
2023/08/04 09:21:44;;;;;;;;;4.75;4.75;;;;;;;;5097354;27;45318;-41
2023/08/04 09:24:10;;;;;;;;;6.75;6.25;;;;;;;;5097182;27;45394;-42
2023/08/04 09:26:43;;;;;;;;;6.80;5.80;;;;;;;;5097519;27;45391;-42
2023/08/04 09:29:08;;;;;;;;;8.40;6.00;;;;;;;;5097751;27;45446;-42
2023/08/04 09:31:36;;;;;;;;;5.75;5.75;;;;;;;;5078776;27;46457;-42
2023/08/04 09:34:05;;;;;;;;;6.60;6.60;;;;;;;;5096911;27;45310;-42
2023/08/04 09:36:31;;;;;;;;;7.80;6.00;;;;;;;;5097505;27;45423;-41
2023/08/04 09:39:04;;;;;;;;;7.80;5.60;;;;;;;;5097401;27;45227;-41
2023/08/04 09:41:31;;;;;;;;;8.40;7.00;;;;;;;;5098314;27;46420;-41
2023/08/04 09:43:57;;;;;;;;;6.80;6.80;;;;;;;;5100868;27;45285;-42
2023/08/04 09:46:22;;;;;;;;;6.50;5.00;;;;;;;;5100838;27;45175;-40
2023/08/04 09:48:47;;;;;;;;;5.50;5.50;;;;;;;;5101029;27;45322;-43
2023/08/04 09:51:14;;;;;;;;;6.75;5.25;;;;;;;;5100559;27;46104;-42
2023/08/04 09:53:46;;;;;;;;;7.80;5.20;;;;;;;;5100560;27;45534;-42
2023/08/04 09:56:12;;;;;;;;;6.20;6.20;;;;;;;;5100715;27;45307;-41
2023/08/04 09:58:37;;;;;;;;;5.75;5.75;;;;;;;;5100932;27;45357;-41
2023/08/04 10:01:03;;;;;;;;;5.50;4.00;;;;;;;;5100351;27;45437;-41
2023/08/04 10:03:28;;;;;;;;;4.00;4.00;;;;;;;;5100817;27;45323;-41
2023/08/04 10:05:55;;;;;;;;;4.00;4.00;;;;;;;;5100631;27;45335;-41
2023/08/04 10:08:20;;;;;;;;;4.00;4.00;;;;;;;;5100681;27;45389;-41
2023/08/04 10:10:46;;;;;;;;;4.00;4.00;;;;;;;;5100361;27;45911;-40
2023/08/04 10:13:11;;;;;;;;;6.75;4.50;;;;;;;;5100274;27;45383;-41
2023/08/04 10:15:36;;;;;;;;;4.75;3.50;;;;;;;;5100451;27;45366;-41
2023/08/04 10:18:02;;;;;;;;;5.75;4.25;;;;;;;;5082154;27;45239;-41
2023/08/04 10:20:32;;;;;;;;;5.00;5.00;;;;;;;;5100490;27;46235;-41
2023/08/04 10:22:57;;;;;;;;;6.60;5.40;;;;;;;;5100117;27;45601;-41
2023/08/04 10:25:24;;;;;;;;;7.75;7.00;;;;;;;;5100345;27;45307;-42
2023/08/04 10:27:49;;;;;;;;;5.20;4.40;;;;;;;;5100470;27;45394;-42
2023/08/04 10:30:15;;;;;;;;;4.00;4.00;;;;;;;;5099761;27;46146;-41
2023/08/04 10:32:40;;;;;;;;;7.50;4.00;;;;;;;;5100017;27;45389;-41
2023/08/04 10:35:16;;;;;;;;;5.75;4.00;;;;;;;;5100071;27;45299;-42
2023/08/04 10:37:53;;;;;;;;;5.00;5.00;;;;;;;;5100056;27;45302;-42
2023/08/04 10:40:28;;;;;;;;;4.00;4.00;;;;;;;;5099665;27;46193;-40
2023/08/04 10:43:03;;;;;;;;;4.00;4.00;;;;;;;;5099913;27;45322;-41
2023/08/04 10:45:47;;;;;;;;;6.20;5.00;;;;;;;;5100086;27;45363;-41
2023/08/04 10:48:14;;;;;;;;;4.60;4.60;;;;;;;;5100143;27;45263;-40
2023/08/04 10:50:39;;;;;;;;;4.60;4.60;;;;;;;;5099455;27;46477;-41
2023/08/04 10:53:05;;;;;;;;;4.50;4.50;;;;;;;;5099489;27;45142;-42
2023/08/04 10:55:32;;;;;;;;;3.00;3.00;;;;;;;;5099568;27;45240;-41
2023/08/04 10:57:57;;;;;;;;;2.20;1.40;;;;;;;;5099744;27;45413;-42
2023/08/04 11:00:23;;;;;;;;;2.25;2.25;;;;;;;;5099760;27;45405;-41
2023/08/04 11:02:48;;;;;;;;;4.00;3.50;;;;;;;;5099597;27;45239;-42
2023/08/04 11:05:13;;;;;;;;;4.25;4.25;;;;;;;;5099946;27;45409;-42
2023/08/04 11:07:44;;;;;;;;;3.00;3.00;;;;;;;;5099647;27;45375;-40
2023/08/04 11:10:09;;;;;;;;;9.60;6.00;;;;;;;;5099172;27;45457;-41
2023/08/04 11:12:38;;;;;;;;;4.75;4.50;;;;;;;;5099566;27;45235;-42
2023/08/04 11:15:03;;;;;;;;;4.00;4.00;;;;;;;;5098969;27;45338;-42
2023/08/04 11:17:28;;;;;;;;;6.50;3.75;;;;;;;;5099578;27;45238;-42
2023/08/04 11:19:53;;;;;;;;;4.75;4.75;;;;;;;;5080924;27;48655;-40
2023/08/04 11:22:21;;;;;;;;;7.00;5.00;;;;;;;;5099050;27;45252;-41
2023/08/04 11:24:46;;;;;;;;;7.60;5.00;;;;;;;;5099641;27;45271;-42
2023/08/04 11:27:12;;;;;;;;;5.75;4.25;;;;;;;;5099246;27;45303;-40
2023/08/04 11:29:38;;;;;;;;;4.60;4.60;;;;;;;;5098927;27;46272;-39
2023/08/04 11:32:17;;;;;;;;;4.75;4.75;;;;;;;;5099313;27;45304;-40
2023/08/04 11:34:43;;;;;;;;;7.80;6.00;;;;;;;;5099006;27;45231;-41
2023/08/04 11:37:09;;;;;;;;;4.00;3.50;;;;;;;;5099227;27;45222;-40
2023/08/04 11:39:35;;;;;;;;;4.00;3.00;;;;;;;;5098024;27;46640;-40
2023/08/04 11:42:00;;;;;;;;;3.40;3.00;;;;;;;;5098830;27;45275;-41
2023/08/04 11:44:26;;;;;;;;;4.00;4.00;;;;;;;;5099153;27;45301;-40
2023/08/04 11:46:51;;;;;;;;;3.00;3.00;;;;;;;;5099290;27;45253;-41
2023/08/04 11:49:16;;;;;;;;;6.00;3.25;;;;;;;;5098539;27;46531;-41
2023/08/04 11:51:43;;;;;;;;;3.00;3.00;;;;;;;;5098930;27;45458;-41
2023/08/04 11:54:15;;;;;;;;;5.00;5.00;;;;;;;;5098777;27;45482;-40
2023/08/04 11:56:41;;;;;;;;;3.80;3.80;;;;;;;;5099064;27;45316;-41
2023/08/04 11:59:10;;;;;;;;;5.50;5.50;;;;;;;;5098707;27;45425;-41
2023/08/04 12:01:35;;;;;;;;;3.00;3.00;;;;;;;;5098807;27;45239;-41
2023/08/04 12:04:00;;;;;;;;;4.25;4.25;;;;;;;;5098451;27;45304;-41
2023/08/04 12:06:29;;;;;;;;;4.75;4.75;;;;;;;;5098981;27;45153;-41
2023/08/04 12:08:59;;;;;;;;;5.20;5.20;;;;;;;;5098426;27;47206;-42
2023/08/04 12:11:25;;;;;;;;;4.40;4.00;;;;;;;;5098527;27;45223;-41
2023/08/04 12:13:50;;;;;;;;;3.00;3.00;;;;;;;;5098612;27;45471;-40
2023/08/04 12:16:17;;;;;;;;;4.25;3.50;;;;;;;;5098830;27;45371;-41
2023/08/04 12:18:42;;;;;;;;;6.00;4.00;;;;;;;;5097736;27;46407;-41
2023/08/04 12:21:10;;;;;;;;;4.75;3.00;;;;;;;;5098450;27;45263;-41
2023/08/04 12:23:35;;;;;;;;;3.40;3.40;;;;;;;;5098566;27;45440;-41
2023/08/04 12:26:00;;;;;;;;;5.00;4.25;;;;;;;;5098720;27;45369;-41
2023/08/04 12:28:25;;;;;;;;;2.00;2.00;;;;;;;;5098206;27;46358;-41
2023/08/04 12:30:51;;;;;;;;;4.00;3.00;;;;;;;;5098055;27;45363;-41
2023/08/04 12:33:16;;;;;;;;;3.00;2.00;;;;;;;;5098076;27;45204;-40
2023/08/04 12:35:41;;;;;;;;;7.00;3.00;;;;;;;;5098428;27;45339;-41
2023/08/04 12:38:06;;;;;;;;;2.00;2.00;;;;;;;;5097853;27;45369;-42
2023/08/04 12:40:32;;;;;;;;;2.00;2.00;;;;;;;;5098026;27;45436;-41
2023/08/04 12:42:57;;;;;;;;;3.00;3.00;;;;;;;;5098175;27;45551;-41
2023/08/04 12:45:23;;;;;;;;;2.25;2.25;;;;;;;;5098092;27;45407;-41
2023/08/04 12:47:48;;;;;;;;;1.75;1.75;;;;;;;;5098045;27;45395;-41
2023/08/04 12:50:13;;;;;;;;;3.50;2.00;;;;;;;;5097871;27;45360;-41
2023/08/04 12:52:38;;;;;;;;;2.25;2.25;;;;;;;;5097971;27;45267;-45
2023/08/04 12:55:04;;;;;;;;;3.75;2.00;;;;;;;;5098189;27;45714;-42
2023/08/04 12:57:29;;;;;;;;;4.50;3.00;;;;;;;;5097491;27;47077;-42
2023/08/04 12:59:54;;;;;;;;;4.50;4.50;;;;;;;;5097941;27;45324;-42
2023/08/04 13:02:19;;;;;;;;;3.00;3.00;;;;;;;;5097704;27;45428;-42
2023/08/04 13:04:44;;;;;;;;;2.75;2.50;;;;;;;;5098022;27;45256;-42
2023/08/04 13:07:10;;;;;;;;;5.50;4.00;;;;;;;;5097536;27;45778;-41
2023/08/04 13:09:35;;;;;;;;;4.50;3.00;;;;;;;;5097470;27;45335;-41
2023/08/04 13:12:00;;;;;;;;;3.00;1.50;;;;;;;;5097841;27;45348;-41
2023/08/04 13:14:25;;;;;;;;;5.75;4.00;;;;;;;;5097760;27;45475;-41
2023/08/04 13:16:51;;;;;;;;;3.00;3.00;;;;;;;;5096496;27;46224;-41
2023/08/04 13:19:16;;;;;;;;;4.00;4.00;;;;;;;;5097522;27;45244;-41
2023/08/04 13:21:41;;;;;;;;;4.75;3.25;;;;;;;;5097613;27;45369;-42
2023/08/04 13:24:06;;;;;;;;;4.00;4.00;;;;;;;;5097520;27;45470;-42
2023/08/04 13:26:31;;;;;;;;;5.00;4.75;;;;;;;;5097094;27;46479;-41
2023/08/04 13:28:57;;;;;;;;;4.50;4.25;;;;;;;;5097539;27;45141;-41
2023/08/04 13:31:22;;;;;;;;;5.00;5.00;;;;;;;;5097281;27;45486;-41
2023/08/04 13:33:47;;;;;;;;;4.00;4.00;;;;;;;;5097362;27;45381;-41
2023/08/04 13:36:12;;;;;;;;;4.75;4.75;;;;;;;;5097351;27;45880;-41
2023/08/04 13:38:38;;;;;;;;;5.00;5.00;;;;;;;;5097105;27;45492;-42
2023/08/04 13:41:03;;;;;;;;;5.25;5.25;;;;;;;;5097492;27;45261;-42
2023/08/04 13:43:28;;;;;;;;;4.75;4.50;;;;;;;;5097592;27;45215;-40
2023/08/04 13:45:53;;;;;;;;;4.25;4.00;;;;;;;;5097132;27;45373;-41
2023/08/04 13:48:18;;;;;;;;;3.00;3.00;;;;;;;;5097245;27;45157;-41
2023/08/04 13:50:44;;;;;;;;;3.00;3.00;;;;;;;;5097332;27;45234;-42
2023/08/04 13:53:09;;;;;;;;;5.25;4.75;;;;;;;;5097623;27;45428;-42
2023/08/04 13:55:35;;;;;;;;;4.25;3.25;;;;;;;;5097111;27;46124;-42
2023/08/04 13:58:01;;;;;;;;;5.00;5.00;;;;;;;;5097146;27;45457;-41
2023/08/04 14:00:26;;;;;;;;;4.00;4.00;;;;;;;;5097263;27;45318;-41
2023/08/04 14:02:51;;;;;;;;;5.00;3.00;;;;;;;;5097312;27;45366;-41
2023/08/04 14:05:16;;;;;;;;;3.25;3.25;;;;;;;;5097008;27;45455;-42
2023/08/04 14:07:41;;;;;;;;;4.00;3.25;;;;;;;;5096150;27;45289;-41
2023/08/04 14:10:10;;;;;;;;;4.00;4.00;;;;;;;;5096219;27;45358;-45
2023/08/04 14:12:35;;;;;;;;;3.80;3.80;;;;;;;;5097313;27;45395;-41
2023/08/04 14:15:00;;;;;;;;;5.75;5.25;;;;;;;;5096653;27;45385;-41
2023/08/04 14:17:26;;;;;;;;;4.25;4.25;;;;;;;;5097148;27;45160;-42
2023/08/04 14:19:51;;;;;;;;;7.00;5.75;;;;;;;;5096854;27;45211;-42
2023/08/04 14:22:16;;;;;;;;;5.75;4.00;;;;;;;;5097100;27;45238;-41
2023/08/04 14:24:41;;;;;;;;;7.75;4.00;;;;;;;;5096639;27;45199;-40
2023/08/04 14:27:07;;;;;;;;;4.75;4.75;;;;;;;;5097237;27;45239;-41